createdAt,value
2022-10-17T01:19:46.320Z,12.77
2022-10-17T01:47:05.614Z,13.02
2022-10-17T01:51:18.077Z,22.58
2022-10-17T01:55:41.212Z,12.80
2022-10-17T02:48:05.221Z,15.65
2022-10-17T02:53:09.774Z,17.58
2022-10-17T03:09:46.032Z,16.38
2022-10-17T03:13:26.399Z,13.55
2022-10-17T03:39:05.844Z,23.90
2022-10-17T03:43:09.813Z,15.68
2022-10-17T04:17:35.869Z,15.48
2022-10-17T04:21:32.570Z,21.58
2022-10-17T04:25:39.237Z,11.55
2022-10-17T04:30:22.829Z,11.45
2022-10-17T04:38:06.268Z,11.35
2022-10-17T04:42:17.105Z,24.58
2022-10-17T04:46:25.718Z,9.68
2022-10-17T05:04:07.054Z,12.90
2022-10-17T05:12:33.596Z,5.47
2022-10-17T05:16:04.887Z,6.30
2022-10-17T05:19:19.257Z,6.40
2022-10-17T05:44:47.083Z,8.23
2022-10-17T05:48:49.309Z,6.45
2022-10-17T05:56:33.264Z,6.60
2022-10-17T05:59:44.535Z,6.05
2022-10-17T06:36:04.096Z,7.35
2022-10-17T06:39:08.720Z,9.32
2022-10-17T06:42:31.929Z,9.65
2022-10-17T06:45:49.238Z,6.55
2022-10-17T06:48:59.606Z,7.38
2022-10-17T06:52:16.817Z,6.43
2022-10-17T06:55:38.119Z,7.90
2022-10-17T06:59:59.292Z,5.28
2022-10-17T07:04:43.425Z,5.80
2022-10-17T07:07:59.067Z,6.45
2022-10-17T07:16:04.184Z,5.90
2022-10-17T07:24:00.874Z,7.25
2022-10-17T07:28:11.614Z,13.13
2022-10-17T07:41:05.425Z,7.28
2022-10-17T08:19:42.120Z,12.47
2022-10-17T08:30:47.574Z,8.63
2022-10-17T08:33:59.575Z,9.02
2022-10-17T08:38:14.171Z,10.13
2022-10-17T08:47:35.221Z,9.50
2022-10-17T08:51:00.793Z,8.80
2022-10-17T08:54:29.837Z,10.63
2022-10-17T08:57:35.480Z,6.55
2022-10-17T09:00:55.696Z,9.13
2022-10-17T09:04:06.052Z,11.32
2022-10-17T09:07:45.758Z,8.85
2022-10-17T09:11:10.514Z,9.57
2022-10-17T09:18:33.721Z,5.20
2022-10-17T09:22:29.736Z,6.75
2022-10-17T09:25:44.891Z,16.73
2022-10-17T09:29:01.198Z,5.75
2022-10-17T09:36:41.725Z,11.85
2022-10-17T09:40:11.517Z,8.20
2022-10-17T09:43:42.421Z,6.53
2022-10-17T09:47:10.224Z,7.47
2022-10-17T09:50:40.452Z,8.88
2022-10-17T09:54:07.008Z,7.07
2022-10-17T09:57:35.950Z,8.73
2022-10-17T10:08:56.474Z,8.48
2022-10-17T10:12:18.790Z,11.75
2022-10-17T10:15:58.173Z,5.85
2022-10-17T10:19:44.795Z,8.50
2022-10-17T10:23:18.453Z,6.75
2022-10-17T10:26:32.431Z,9.43
2022-10-17T10:29:51.003Z,12.75
2022-10-17T10:33:23.369Z,8.85
2022-10-17T10:36:57.543Z,7.47
2022-10-17T10:40:07.597Z,9.30
2022-10-17T10:43:51.406Z,8.43
2022-10-17T10:47:38.104Z,7.28
2022-10-17T10:50:57.553Z,7.95
2022-10-17T10:54:22.459Z,10.75
2022-10-17T10:57:31.151Z,7.10
2022-10-17T11:00:59.128Z,10.65
2022-10-17T11:04:29.901Z,10.80
2022-10-17T11:08:06.549Z,12.20
2022-10-17T11:11:40.282Z,11.98
2022-10-17T11:16:21.381Z,12.80
2022-10-17T11:20:19.116Z,8.63
2022-10-17T11:23:37.254Z,11.40
2022-10-17T11:35:27.622Z,13.05
2022-10-17T11:38:53.700Z,12.95
2022-10-17T12:30:24.421Z,24.63
2022-10-17T12:33:59.526Z,28.95
2022-10-17T12:37:10.277Z,20.42
2022-10-17T12:41:02.057Z,28.67
2022-10-17T12:44:38.110Z,26.13
2022-10-17T12:47:45.051Z,34.70
2022-10-17T12:54:47.725Z,32.85
2022-10-17T12:58:08.232Z,37.05
2022-10-17T13:01:28.466Z,40.47
2022-10-17T13:04:39.369Z,44.00
2022-10-17T13:08:07.796Z,50.55
2022-10-17T13:11:18.505Z,56.08
2022-10-17T13:15:43.621Z,51.60
2022-10-17T13:22:29.094Z,37.08
2022-10-17T13:25:41.502Z,49.70
2022-10-17T13:29:48.799Z,61.15
2022-10-17T13:33:05.624Z,57.78
2022-10-17T13:36:36.242Z,58.47
2022-10-17T13:39:55.989Z,64.82
2022-10-17T13:43:04.241Z,75.35
2022-10-17T13:46:39.956Z,71.68
2022-10-17T13:49:49.515Z,77.30
2022-10-17T13:53:19.445Z,83.40
2022-10-17T13:56:29.207Z,75.88
2022-10-17T13:59:43.684Z,84.78
2022-10-17T14:02:54.772Z,69.10
2022-10-17T14:06:31.750Z,75.45
2022-10-17T14:15:10.186Z,89.90
2022-10-17T14:26:30.870Z,96.45
2022-10-17T14:29:56.630Z,92.25
2022-10-17T14:33:05.831Z,107.22
2022-10-17T14:37:04.212Z,102.68
2022-10-17T14:40:23.828Z,105.07
2022-10-17T14:43:32.468Z,103.78
2022-10-17T14:46:48.436Z,107.15
2022-10-17T14:50:24.798Z,105.18
2022-10-17T14:53:32.716Z,110.97
2022-10-17T14:56:45.870Z,115.60
2022-10-17T14:59:57.291Z,118.13
2022-10-17T15:03:01.808Z,126.88
2022-10-17T15:06:26.719Z,94.72
2022-10-17T15:09:34.626Z,118.88
2022-10-17T15:12:52.092Z,118.18
2022-10-17T15:16:57.124Z,120.72
2022-10-17T15:20:02.563Z,83.05
2022-10-17T15:23:25.531Z,102.10
2022-10-17T15:26:41.840Z,92.95
2022-10-17T15:29:57.204Z,95.50
2022-10-17T15:33:09.641Z,96.78
2022-10-17T15:36:46.362Z,102.38
2022-10-17T16:11:01.226Z,124.78
2022-10-17T16:14:12.389Z,93.28
2022-10-17T16:17:18.060Z,114.03
2022-10-17T16:20:24.905Z,91.75
2022-10-17T16:23:29.890Z,108.47
2022-10-17T16:26:34.879Z,111.97
2022-10-17T16:29:40.767Z,96.03
2022-10-17T16:32:49.068Z,122.35
2022-10-17T16:35:53.547Z,92.32
2022-10-17T16:38:58.507Z,123.55
2022-10-17T16:42:03.366Z,106.78
2022-10-17T16:45:16.768Z,115.35
2022-10-17T16:48:23.980Z,120.95
2022-10-17T16:51:35.831Z,118.47
2022-10-17T16:54:43.190Z,111.85
2022-10-17T16:57:49.031Z,107.07
2022-10-17T17:00:54.372Z,77.10
2022-10-17T17:04:04.709Z,116.47
2022-10-17T17:07:09.331Z,92.68
2022-10-17T17:10:14.461Z,104.80
2022-10-17T17:13:21.815Z,105.85
2022-10-17T17:16:27.871Z,91.50
2022-10-17T17:19:32.703Z,69.03
2022-10-17T17:22:37.112Z,44.83
2022-10-17T17:25:41.756Z,44.95
2022-10-17T17:28:47.123Z,31.35
2022-10-17T17:31:51.887Z,34.13
2022-10-17T17:34:56.160Z,28.33
2022-10-17T17:38:03.092Z,22.45
2022-10-17T17:41:08.156Z,19.15
2022-10-17T17:44:17.854Z,29.17
2022-10-17T17:47:22.307Z,22.67
2022-10-17T17:50:31.314Z,24.25
2022-10-17T17:53:36.925Z,25.70
2022-10-17T17:56:42.981Z,36.60
2022-10-17T17:59:50.276Z,36.33
2022-10-17T18:02:55.253Z,52.05
2022-10-17T18:05:59.951Z,58.40
2022-10-17T18:09:06.454Z,58.50
2022-10-17T18:12:11.180Z,49.53
2022-10-17T18:15:15.780Z,40.80
2022-10-17T18:18:20.700Z,40.00
2022-10-17T18:21:25.461Z,37.72
2022-10-17T18:24:30.434Z,34.17
2022-10-17T18:27:35.467Z,32.67
2022-10-17T18:30:41.353Z,45.08
2022-10-17T18:33:46.730Z,34.20
2022-10-17T18:36:53.963Z,35.58
2022-10-17T18:40:23.203Z,29.58
2022-10-17T18:43:38.036Z,27.63
2022-10-17T18:46:52.741Z,37.47
2022-10-17T18:53:23.658Z,42.88
2022-10-17T18:56:39.805Z,46.45
2022-10-17T18:59:49.942Z,54.28
2022-10-17T19:03:07.201Z,61.65
2022-10-17T19:06:31.894Z,70.82
2022-10-17T19:09:37.435Z,79.65
2022-10-17T19:12:56.259Z,69.35
2022-10-17T19:16:05.822Z,85.43
2022-10-17T19:19:28.251Z,80.63
2022-10-17T19:22:36.440Z,78.30
2022-10-17T19:25:43.816Z,71.13
2022-10-17T19:28:54.670Z,92.47
2022-10-17T19:32:00.787Z,94.72
2022-10-17T19:35:06.766Z,80.97
2022-10-17T19:38:11.400Z,104.75
2022-10-17T19:41:18.085Z,92.45
2022-10-17T19:44:29.956Z,97.32
2022-10-17T19:47:39.079Z,100.07
2022-10-17T19:50:51.161Z,86.50
2022-10-17T19:54:06.177Z,63.53
2022-10-17T19:57:26.266Z,69.30
2022-10-17T20:01:03.090Z,79.63
2022-10-17T20:04:21.351Z,75.00
2022-10-17T20:07:46.113Z,63.55
2022-10-17T20:11:58.329Z,68.40
2022-10-17T20:15:14.930Z,61.13
2022-10-17T20:22:10.299Z,68.70
2022-10-17T20:25:18.263Z,60.47
2022-10-17T20:32:40.181Z,82.50
2022-10-17T20:35:51.728Z,65.60
2022-10-17T20:39:03.298Z,78.65
2022-10-17T20:42:12.753Z,74.15
2022-10-17T20:45:43.890Z,56.97
2022-10-17T20:49:08.936Z,64.13
2022-10-17T20:52:29.224Z,69.10
2022-10-17T20:55:48.684Z,80.18
2022-10-17T20:59:20.016Z,49.38
2022-10-17T21:02:31.078Z,58.95
2022-10-17T21:05:40.599Z,68.85
2022-10-17T21:08:47.165Z,66.78
2022-10-17T21:11:55.587Z,79.30
2022-10-17T21:15:24.324Z,55.30
2022-10-17T21:18:35.815Z,86.55
2022-10-17T21:21:49.759Z,74.38
2022-10-17T21:25:04.144Z,65.43
2022-10-17T21:28:14.217Z,82.03
2022-10-17T21:31:32.688Z,100.82
2022-10-17T21:34:43.875Z,86.40
2022-10-17T21:37:59.173Z,84.05
2022-10-17T21:41:07.111Z,102.63
2022-10-17T21:44:24.112Z,88.28
2022-10-17T21:47:32.336Z,105.97
2022-10-17T21:50:44.705Z,130.40
2022-10-17T21:53:58.262Z,110.63
2022-10-17T21:57:03.354Z,104.75
2022-10-17T22:00:09.020Z,105.13
2022-10-17T22:03:17.725Z,129.15
2022-10-17T22:06:49.538Z,131.82
2022-10-17T22:10:10.530Z,138.90
2022-10-17T22:13:28.586Z,146.93
2022-10-17T22:16:53.653Z,142.68
2022-10-17T22:20:07.045Z,172.85
2022-10-17T22:23:12.648Z,150.70
2022-10-17T22:26:21.117Z,166.85
2022-10-17T22:29:37.733Z,135.13
2022-10-17T22:32:51.788Z,178.02
2022-10-17T22:36:15.733Z,187.05
2022-10-17T22:39:31.295Z,176.70
2022-10-17T22:42:53.156Z,182.45
2022-10-17T22:46:03.584Z,189.32
2022-10-17T22:49:08.578Z,187.93
2022-10-17T22:52:13.135Z,194.75
2022-10-17T22:55:20.280Z,221.63
2022-10-17T22:58:34.700Z,223.00
2022-10-17T23:01:50.187Z,219.63
2022-10-17T23:05:04.325Z,272.33
2022-10-17T23:09:12.445Z,234.50
2022-10-17T23:12:22.446Z,222.68
2022-10-17T23:15:30.512Z,224.82
2022-10-17T23:18:58.221Z,257.58
2022-10-17T23:22:20.805Z,264.92
2022-10-17T23:25:34.066Z,281.88
2022-10-17T23:28:56.419Z,299.95
2022-10-17T23:32:03.888Z,272.20
2022-10-17T23:35:18.797Z,196.13
2022-10-17T23:41:58.600Z,261.70
2022-10-17T23:45:04.097Z,259.65
2022-10-17T23:48:09.625Z,278.48
2022-10-17T23:51:14.414Z,293.27
2022-10-17T23:54:19.368Z,277.77
2022-10-17T23:57:23.924Z,282.83
